KRIC/RIC METAR and TAF weather

Enter ICAO airport designator
Station Type Date Time Source
KRIC METAR 2019/10/15 18:54 UTC NOAA

KRIC 151854Z 06007KT 10SM FEW300 24/07 A3009 RMK AO2 SLP193 T02390067


Station Type Date Time Source
KRIC Decoded METAR 2019/10/15 18:54 UTC NOAA

RICHMOND INTERNATIONAL AIRPORT, VA, United States (KRIC) 37-31N 077-19W 50M
Oct 15, 2019 - 02:54 PM EDT / 2019.10.15 1854 UTC
Wind: from the ENE (060 degrees) at 8 MPH (7 KT):0
Visibility: 10 mile(s):0
Sky conditions: mostly clear
Temperature: 75.0 F (23.9 C)
Dew Point: 44.1 F (6.7 C)
Relative Humidity: 33%
Pressure (altimeter): 30.09 in. Hg (1018 hPa)
ob: KRIC 151854Z 06007KT 10SM FEW300 24/07 A3009 RMK AO2 SLP193 T02390067
cycle: 19

Station Type Date Time Source
KRIC TAF 2019/10/15 18:22 UTC NOAA

TAF KRIC 151720Z 1518/1618 09006KT P6SM SKC
FM160200 13004KT P6SM SCT250
FM160900 00000KT P6SM BKN040
FM161200 00000KT 6SM -SHRA OVC015
FM161400 18005KT 5SM -SHRA OVC020

Example: see airport list